createdAt,value
2022-07-30T00:02:00.988Z,15.30
2022-07-30T00:04:38.781Z,15.30
2022-07-30T00:07:11.975Z,15.30
2022-07-30T00:09:44.927Z,15.30
2022-07-30T00:12:18.002Z,15.30
2022-07-30T00:14:51.107Z,15.30
2022-07-30T00:17:24.080Z,15.30
2022-07-30T00:19:56.865Z,15.30
2022-07-30T00:22:30.147Z,15.30
2022-07-30T00:25:03.387Z,15.30
2022-07-30T00:27:37.075Z,15.30
2022-07-30T00:30:10.941Z,15.30
2022-07-30T00:32:46.101Z,15.30
2022-07-30T00:35:19.319Z,15.30
2022-07-30T00:37:52.164Z,15.30
2022-07-30T00:40:25.053Z,15.30
2022-07-30T00:42:57.988Z,15.30
2022-07-30T00:45:31.143Z,15.30
2022-07-30T00:48:04.243Z,15.30
2022-07-30T00:50:37.099Z,15.30
2022-07-30T00:53:10.458Z,15.30
2022-07-30T00:55:47.271Z,15.20
2022-07-30T00:58:20.248Z,15.20
2022-07-30T01:00:53.171Z,15.20
2022-07-30T01:03:26.105Z,15.30
2022-07-30T01:05:58.971Z,15.30
2022-07-30T01:08:31.709Z,15.30
2022-07-30T01:11:04.981Z,15.20
2022-07-30T01:13:37.558Z,15.30
2022-07-30T01:16:10.365Z,15.30
2022-07-30T01:19:01.509Z,15.30
2022-07-30T01:21:35.977Z,15.20
2022-07-30T01:24:13.554Z,15.20
2022-07-30T01:26:46.964Z,15.20
2022-07-30T01:29:21.102Z,15.20
2022-07-30T01:31:56.873Z,15.20
2022-07-30T01:34:33.147Z,15.20
2022-07-30T01:37:09.527Z,15.20
2022-07-30T01:39:49.019Z,15.20
2022-07-30T01:42:22.650Z,15.20
2022-07-30T01:44:56.635Z,15.20
2022-07-30T01:47:35.781Z,15.20
2022-07-30T01:50:11.174Z,15.20
2022-07-30T01:52:45.786Z,15.20
2022-07-30T01:55:21.950Z,15.10
2022-07-30T01:57:55.394Z,15.10
2022-07-30T02:00:29.823Z,15.10
2022-07-30T02:03:03.028Z,15.10
2022-07-30T02:05:38.078Z,15.10
2022-07-30T02:08:12.739Z,15.10
2022-07-30T02:10:59.827Z,15.10
2022-07-30T02:13:33.847Z,15.10
2022-07-30T02:16:12.243Z,15.10
2022-07-30T02:19:06.024Z,15.10
2022-07-30T02:21:49.640Z,15.10
2022-07-30T02:24:21.322Z,15.10
2022-07-30T02:26:56.353Z,15.10
2022-07-30T02:29:33.530Z,15.10
2022-07-30T02:32:08.477Z,15.10
2022-07-30T02:34:43.616Z,15.10
2022-07-30T02:37:18.464Z,15.10
2022-07-30T02:39:54.023Z,15.10
2022-07-30T02:42:28.116Z,15.10
2022-07-30T02:45:02.270Z,15.10
2022-07-30T02:47:37.180Z,15.10
2022-07-30T02:50:11.085Z,15.00
2022-07-30T02:52:48.938Z,15.10
2022-07-30T02:55:23.152Z,15.10
2022-07-30T02:57:57.307Z,15.10
2022-07-30T03:00:31.780Z,15.10
2022-07-30T03:03:08.385Z,15.00
2022-07-30T03:05:41.850Z,15.00
2022-07-30T03:08:14.953Z,15.10
2022-07-30T03:10:50.571Z,15.10
2022-07-30T03:13:25.494Z,15.10
2022-07-30T03:16:00.608Z,15.10
2022-07-30T03:18:35.371Z,15.10
2022-07-30T03:21:09.614Z,15.10
2022-07-30T03:23:43.285Z,15.20
2022-07-30T03:26:21.512Z,15.10
2022-07-30T03:28:54.654Z,15.20
2022-07-30T03:31:28.559Z,15.20
2022-07-30T03:34:01.654Z,15.10
2022-07-30T03:36:35.398Z,15.10
2022-07-30T03:39:10.315Z,15.10
2022-07-30T03:41:44.087Z,15.10
2022-07-30T03:44:17.367Z,15.10
2022-07-30T03:46:53.116Z,15.10
2022-07-30T03:49:28.093Z,15.10
2022-07-30T03:52:01.263Z,15.10
2022-07-30T03:54:36.721Z,15.10
2022-07-30T03:57:15.277Z,15.10
2022-07-30T03:59:48.518Z,15.10
2022-07-30T04:02:21.590Z,15.10
2022-07-30T04:04:54.510Z,15.10
2022-07-30T04:07:27.731Z,15.00
2022-07-30T04:10:00.727Z,15.10
2022-07-30T04:12:33.694Z,15.10
2022-07-30T04:16:05.680Z,15.10
2022-07-30T04:17:44.136Z,15.10
2022-07-30T04:20:34.470Z,15.00
2022-07-30T04:23:08.144Z,15.10
2022-07-30T04:25:41.399Z,15.00
2022-07-30T04:28:15.142Z,15.00
2022-07-30T04:30:53.638Z,15.10
2022-07-30T04:33:26.609Z,15.10
2022-07-30T04:36:01.349Z,15.00
2022-07-30T04:38:34.369Z,15.00
2022-07-30T04:41:07.288Z,15.00
2022-07-30T04:43:40.143Z,15.00
2022-07-30T04:46:13.161Z,15.00
2022-07-30T04:48:48.158Z,15.00
2022-07-30T04:51:31.785Z,15.00
2022-07-30T04:54:06.139Z,15.00
2022-07-30T04:56:39.702Z,15.00
2022-07-30T04:59:14.727Z,15.00
2022-07-30T05:01:49.843Z,14.90
2022-07-30T05:04:24.198Z,15.00
2022-07-30T05:06:58.183Z,14.90
2022-07-30T05:09:32.824Z,14.90
2022-07-30T05:12:05.786Z,15.00
2022-07-30T05:14:38.800Z,15.00
2022-07-30T05:17:11.745Z,15.00
2022-07-30T05:19:44.904Z,15.00
2022-07-30T05:22:23.097Z,15.00
2022-07-30T05:25:00.013Z,15.00
2022-07-30T05:27:53.030Z,14.90
2022-07-30T05:30:27.743Z,14.90
2022-07-30T05:33:02.782Z,14.90
2022-07-30T05:35:34.137Z,14.90
2022-07-30T05:38:07.202Z,14.80
2022-07-30T05:40:44.581Z,14.80
2022-07-30T05:43:17.635Z,14.80
2022-07-30T05:45:50.472Z,14.80
2022-07-30T05:48:23.288Z,14.80
2022-07-30T05:50:56.303Z,14.80
2022-07-30T05:53:29.257Z,14.70
2022-07-30T05:56:02.186Z,14.80
2022-07-30T05:58:35.212Z,14.80
2022-07-30T06:01:08.178Z,14.80
2022-07-30T06:03:41.071Z,14.80
2022-07-30T06:06:14.129Z,14.80
2022-07-30T06:08:47.018Z,14.70
2022-07-30T06:11:20.044Z,14.70
2022-07-30T06:13:53.174Z,14.70
2022-07-30T06:16:26.207Z,14.70
2022-07-30T06:19:00.320Z,14.70
2022-07-30T06:22:06.202Z,14.70
2022-07-30T06:24:12.089Z,14.70
2022-07-30T06:26:45.451Z,14.70
2022-07-30T06:29:18.364Z,14.70
2022-07-30T06:31:51.283Z,14.70
2022-07-30T06:34:24.146Z,14.70
2022-07-30T06:36:57.266Z,14.60
2022-07-30T06:39:56.607Z,14.60
2022-07-30T06:42:04.550Z,14.60
2022-07-30T06:44:46.457Z,14.60
2022-07-30T06:47:21.568Z,14.60
2022-07-30T06:49:54.882Z,14.60
2022-07-30T06:52:28.071Z,14.50
2022-07-30T06:55:00.894Z,14.50
2022-07-30T06:57:40.340Z,14.50
2022-07-30T07:00:11.597Z,14.50
2022-07-30T07:02:45.185Z,14.50
2022-07-30T07:05:18.085Z,14.50
2022-07-30T07:07:58.871Z,14.50
2022-07-30T07:10:25.548Z,14.50
2022-07-30T07:12:58.313Z,14.50
2022-07-30T07:15:36.086Z,14.50
2022-07-30T07:18:05.365Z,14.50
2022-07-30T07:20:41.129Z,14.50
2022-07-30T07:23:14.072Z,14.50
2022-07-30T07:25:47.053Z,14.50
2022-07-30T07:28:20.281Z,14.50
2022-07-30T07:30:53.623Z,14.50
2022-07-30T07:33:31.006Z,14.50
2022-07-30T07:36:04.108Z,14.50
2022-07-30T07:38:36.887Z,14.50
2022-07-30T07:41:10.145Z,14.50
2022-07-30T07:43:43.276Z,14.50
2022-07-30T07:46:33.640Z,14.50
2022-07-30T07:48:51.770Z,14.50
2022-07-30T07:51:47.555Z,14.50
2022-07-30T07:54:19.863Z,14.50
2022-07-30T07:56:33.585Z,14.50
2022-07-30T07:59:11.831Z,14.50
2022-07-30T08:01:45.887Z,14.50
2022-07-30T08:04:18.875Z,14.40
2022-07-30T08:06:51.736Z,14.40
2022-07-30T08:09:25.000Z,14.50
2022-07-30T08:11:57.870Z,14.40
2022-07-30T08:14:32.008Z,14.40
2022-07-30T08:17:05.573Z,14.40
2022-07-30T08:19:38.733Z,14.40
2022-07-30T08:22:12.473Z,14.40
2022-07-30T08:24:45.562Z,14.40
2022-07-30T08:27:18.559Z,14.40
2022-07-30T08:29:51.547Z,14.40
2022-07-30T08:32:24.553Z,14.40
2022-07-30T08:34:57.673Z,14.30
2022-07-30T08:37:30.561Z,14.30
2022-07-30T08:40:03.251Z,14.30
2022-07-30T08:42:40.493Z,14.30
2022-07-30T08:45:15.084Z,14.30
2022-07-30T08:47:49.025Z,14.20
2022-07-30T08:50:22.437Z,14.20
2022-07-30T08:52:59.908Z,14.20
2022-07-30T08:55:33.301Z,14.20
2022-07-30T08:58:06.955Z,14.20
2022-07-30T09:00:43.892Z,14.20
2022-07-30T09:03:16.842Z,14.10
2022-07-30T09:05:50.002Z,14.10
2022-07-30T09:08:23.041Z,14.10
2022-07-30T09:10:56.042Z,14.10
2022-07-30T09:13:39.618Z,14.10
2022-07-30T09:16:13.731Z,14.00
2022-07-30T09:18:46.785Z,14.00
2022-07-30T09:21:25.488Z,14.00
2022-07-30T09:24:09.202Z,14.00
2022-07-30T09:27:02.159Z,14.00
2022-07-30T09:29:35.722Z,14.00
2022-07-30T09:32:11.333Z,14.00
2022-07-30T09:34:44.660Z,14.00
2022-07-30T09:37:22.470Z,14.00
2022-07-30T09:40:00.066Z,14.00
2022-07-30T09:42:34.963Z,14.00
2022-07-30T09:45:13.272Z,14.00
2022-07-30T09:47:53.435Z,14.00
2022-07-30T09:50:33.541Z,14.00
2022-07-30T09:53:14.552Z,14.10
2022-07-30T09:55:47.715Z,14.10
2022-07-30T09:58:27.062Z,14.10
2022-07-30T10:01:00.577Z,14.10
2022-07-30T10:03:42.429Z,14.10
2022-07-30T10:06:08.863Z,14.10
2022-07-30T10:08:51.564Z,14.10
2022-07-30T10:11:31.316Z,14.10
2022-07-30T10:14:05.092Z,14.10
2022-07-30T10:16:37.976Z,14.10
2022-07-30T10:19:18.115Z,14.10
2022-07-30T10:21:48.826Z,14.10
2022-07-30T10:24:27.596Z,14.10
2022-07-30T10:27:00.026Z,14.10
2022-07-30T10:29:34.841Z,14.10
2022-07-30T10:32:10.545Z,14.10
2022-07-30T10:34:43.928Z,14.10
2022-07-30T10:37:18.618Z,14.10
2022-07-30T10:40:15.002Z,14.10
2022-07-30T10:43:11.910Z,14.00
2022-07-30T10:46:22.774Z,14.00
2022-07-30T10:48:52.172Z,14.00
2022-07-30T10:51:34.582Z,14.00
2022-07-30T10:53:59.986Z,14.00
2022-07-30T10:56:33.257Z,14.00
2022-07-30T10:59:08.418Z,14.00
2022-07-30T11:01:55.378Z,14.00
2022-07-30T11:04:32.416Z,14.00
2022-07-30T11:07:27.268Z,14.00
2022-07-30T11:10:08.780Z,14.00
2022-07-30T11:12:53.007Z,14.00
2022-07-30T11:15:33.234Z,14.00
2022-07-30T11:18:12.945Z,13.90
2022-07-30T11:20:40.010Z,13.90
2022-07-30T11:23:29.520Z,13.90
2022-07-30T11:26:03.926Z,13.90
2022-07-30T11:28:49.308Z,13.90
2022-07-30T11:31:56.262Z,13.90
2022-07-30T11:34:31.655Z,13.90
2022-07-30T11:37:31.772Z,13.90
2022-07-30T11:40:01.629Z,13.90
2022-07-30T11:42:38.416Z,13.90
2022-07-30T11:45:26.185Z,13.90
2022-07-30T11:48:01.747Z,13.90
2022-07-30T11:50:36.401Z,13.90
2022-07-30T11:53:14.513Z,13.90
2022-07-30T11:55:53.993Z,13.90
2022-07-30T11:58:35.272Z,13.90
2022-07-30T12:01:09.827Z,13.90
2022-07-30T12:03:46.498Z,13.90
2022-07-30T12:06:21.305Z,13.90
2022-07-30T12:08:58.533Z,13.90
2022-07-30T12:11:30.683Z,13.90
2022-07-30T12:14:04.361Z,13.90
2022-07-30T12:16:37.989Z,13.90
2022-07-30T12:19:11.178Z,13.90
2022-07-30T12:21:43.815Z,13.90
2022-07-30T12:24:16.836Z,13.90
2022-07-30T12:26:50.223Z,13.90
2022-07-30T12:29:23.125Z,13.90
2022-07-30T12:31:57.044Z,13.90
2022-07-30T12:34:30.593Z,13.90
2022-07-30T12:37:13.505Z,13.80
2022-07-30T12:39:46.447Z,13.80
2022-07-30T12:42:26.923Z,13.80
2022-07-30T12:44:59.828Z,13.80
2022-07-30T12:47:33.798Z,13.80
2022-07-30T12:50:08.364Z,13.80
2022-07-30T12:52:46.037Z,13.80
2022-07-30T12:55:19.402Z,13.80
2022-07-30T12:58:08.822Z,13.80
2022-07-30T13:00:52.833Z,13.70
2022-07-30T13:03:27.980Z,13.70
2022-07-30T13:06:05.498Z,13.70
2022-07-30T13:08:59.422Z,13.70
2022-07-30T13:11:48.706Z,13.70
2022-07-30T13:14:18.810Z,13.70
2022-07-30T13:17:01.034Z,13.70
2022-07-30T13:19:34.164Z,13.70
2022-07-30T13:22:07.302Z,13.70
2022-07-30T13:24:41.098Z,13.70
2022-07-30T13:27:14.794Z,13.70
2022-07-30T13:29:47.921Z,13.70
2022-07-30T13:32:20.729Z,13.60
2022-07-30T13:34:53.566Z,13.60
2022-07-30T13:37:38.460Z,13.60
2022-07-30T13:40:01.077Z,13.60
2022-07-30T13:42:34.288Z,13.70
2022-07-30T13:45:07.406Z,13.60
2022-07-30T13:47:44.114Z,13.60
2022-07-30T13:50:17.483Z,13.60
2022-07-30T13:52:50.142Z,13.60
2022-07-30T13:55:23.131Z,13.60
2022-07-30T13:57:56.158Z,13.60
2022-07-30T14:00:30.518Z,13.60
2022-07-30T14:03:05.623Z,13.60
2022-07-30T14:05:42.342Z,13.70
2022-07-30T14:08:14.866Z,13.60
2022-07-30T14:10:48.126Z,13.60
2022-07-30T14:13:21.528Z,13.60
2022-07-30T14:15:58.635Z,13.60
2022-07-30T14:18:31.625Z,13.60
2022-07-30T14:21:05.187Z,13.60
2022-07-30T14:23:38.004Z,13.60
2022-07-30T14:26:11.051Z,13.60
2022-07-30T14:28:43.743Z,13.60
2022-07-30T14:31:16.534Z,13.60
2022-07-30T14:33:49.384Z,13.60
2022-07-30T14:36:26.113Z,13.60
2022-07-30T14:39:03.679Z,13.60
2022-07-30T14:41:36.723Z,13.50
2022-07-30T14:44:11.111Z,13.50
2022-07-30T14:46:52.431Z,13.50
2022-07-30T14:49:18.294Z,13.50
2022-07-30T14:51:50.919Z,13.50
2022-07-30T14:54:24.380Z,13.50
2022-07-30T14:56:58.539Z,13.50
2022-07-30T14:59:32.583Z,13.50
2022-07-30T15:02:10.699Z,13.50
2022-07-30T15:04:42.478Z,13.50
2022-07-30T15:07:18.026Z,13.50
2022-07-30T15:09:51.519Z,13.50
2022-07-30T15:12:28.680Z,13.50
2022-07-30T15:15:01.809Z,13.50
2022-07-30T15:17:39.008Z,13.50
2022-07-30T15:20:12.652Z,13.50
2022-07-30T15:22:45.510Z,13.50
2022-07-30T15:25:22.470Z,13.50
2022-07-30T15:27:55.696Z,13.50
2022-07-30T15:30:28.744Z,13.50
2022-07-30T15:33:01.674Z,13.50
2022-07-30T15:35:34.763Z,13.40
2022-07-30T15:38:07.685Z,13.40
2022-07-30T15:40:40.515Z,13.40
2022-07-30T15:43:13.378Z,13.40
2022-07-30T15:45:55.505Z,13.40
2022-07-30T15:48:26.639Z,13.40
2022-07-30T15:50:58.495Z,13.40
2022-07-30T15:53:31.807Z,13.40
2022-07-30T15:56:04.634Z,13.40
2022-07-30T15:58:43.537Z,13.40
2022-07-30T16:01:16.493Z,13.40
2022-07-30T16:03:49.223Z,13.40
2022-07-30T16:06:25.617Z,13.40
2022-07-30T16:08:58.461Z,13.40
2022-07-30T16:11:36.079Z,13.30
2022-07-30T16:14:09.213Z,13.30
2022-07-30T16:16:42.150Z,13.30
2022-07-30T16:19:15.510Z,13.30
2022-07-30T16:21:48.403Z,13.30
2022-07-30T16:24:21.407Z,13.30
2022-07-30T16:26:54.476Z,13.20
2022-07-30T16:29:27.393Z,13.20
2022-07-30T16:32:00.839Z,13.20
2022-07-30T16:34:39.015Z,13.20
2022-07-30T16:37:12.213Z,13.20
2022-07-30T16:39:45.432Z,13.20
2022-07-30T16:42:18.960Z,13.20
2022-07-30T16:44:51.754Z,13.10
2022-07-30T16:47:24.929Z,13.10
2022-07-30T16:49:57.693Z,13.10
2022-07-30T16:52:30.642Z,13.10
2022-07-30T16:55:04.085Z,13.10
2022-07-30T16:57:37.088Z,13.10
2022-07-30T17:00:15.826Z,13.20
2022-07-30T17:02:48.925Z,13.20
2022-07-30T17:05:26.329Z,13.20
2022-07-30T17:08:03.491Z,13.10
2022-07-30T17:10:36.528Z,13.10
2022-07-30T17:13:09.583Z,13.10
2022-07-30T17:15:42.520Z,13.10
2022-07-30T17:18:15.775Z,13.10
2022-07-30T17:20:48.585Z,13.10
2022-07-30T17:23:21.440Z,13.10
2022-07-30T17:25:54.409Z,13.10
2022-07-30T17:28:27.386Z,13.10
2022-07-30T17:31:00.379Z,13.00
2022-07-30T17:33:33.167Z,13.00
2022-07-30T17:36:06.357Z,13.00
2022-07-30T17:38:39.367Z,13.00
2022-07-30T17:41:13.621Z,13.00
2022-07-30T17:43:46.955Z,13.00
2022-07-30T17:46:19.824Z,12.90
2022-07-30T17:48:52.916Z,12.90
2022-07-30T17:51:26.090Z,12.90
2022-07-30T17:54:01.552Z,12.90
2022-07-30T17:56:33.400Z,12.90
2022-07-30T17:59:08.795Z,12.80
2022-07-30T18:01:41.471Z,12.80
2022-07-30T18:04:14.215Z,12.80
2022-07-30T18:06:50.218Z,12.90
2022-07-30T18:09:22.999Z,12.90
2022-07-30T18:11:58.346Z,12.90
2022-07-30T18:14:32.268Z,12.90
2022-07-30T18:17:05.378Z,12.80
2022-07-30T18:19:38.394Z,12.80
2022-07-30T18:22:14.670Z,12.80
2022-07-30T18:24:46.976Z,12.80
2022-07-30T18:27:21.076Z,12.80
2022-07-30T18:29:56.918Z,12.80
2022-07-30T18:32:29.920Z,12.80
2022-07-30T18:35:02.662Z,12.80
2022-07-30T18:37:41.263Z,12.80
2022-07-30T18:40:10.132Z,12.80
2022-07-30T18:42:42.933Z,12.80
2022-07-30T18:45:16.812Z,12.80
2022-07-30T18:47:50.599Z,12.70
2022-07-30T18:50:23.798Z,12.70
2022-07-30T18:52:57.469Z,12.60
2022-07-30T18:55:32.874Z,12.60
2022-07-30T18:58:23.644Z,12.50
2022-07-30T19:00:41.541Z,12.50
2022-07-30T19:06:06.894Z,12.40
2022-07-30T19:08:41.163Z,12.40
2022-07-30T19:11:14.326Z,12.40
2022-07-30T19:13:51.376Z,12.40
2022-07-30T19:16:24.577Z,12.40
2022-07-30T19:19:01.397Z,12.40
2022-07-30T19:21:34.911Z,12.40
2022-07-30T19:24:08.179Z,12.40
2022-07-30T19:26:42.937Z,12.40
2022-07-30T19:29:16.011Z,12.40
2022-07-30T19:31:48.870Z,12.40
2022-07-30T19:34:21.612Z,12.40
2022-07-30T19:36:54.466Z,12.40
2022-07-30T19:39:27.303Z,12.40
2022-07-30T19:42:00.837Z,12.40
2022-07-30T19:44:35.044Z,12.30
2022-07-30T19:47:07.840Z,12.30
2022-07-30T19:49:41.702Z,12.30
2022-07-30T19:52:23.366Z,12.30
2022-07-30T19:54:49.814Z,12.30
2022-07-30T19:57:22.935Z,12.30
2022-07-30T20:00:00.091Z,12.30
2022-07-30T20:02:34.562Z,12.30
2022-07-30T20:05:11.147Z,12.30
2022-07-30T20:07:44.564Z,12.30
2022-07-30T20:10:17.640Z,12.30
2022-07-30T20:12:50.952Z,12.20
2022-07-30T20:15:23.682Z,12.20
2022-07-30T20:18:01.084Z,12.10
2022-07-30T20:20:35.583Z,12.10
2022-07-30T20:23:09.876Z,12.10
2022-07-30T20:25:43.797Z,12.00
2022-07-30T20:28:17.991Z,12.10
2022-07-30T20:30:51.476Z,12.10
2022-07-30T20:33:35.885Z,12.10
2022-07-30T20:35:58.890Z,12.10
2022-07-30T20:38:35.721Z,12.20
2022-07-30T20:41:10.277Z,12.20
2022-07-30T20:43:51.595Z,12.30
2022-07-30T20:46:18.043Z,12.30
2022-07-30T20:48:52.244Z,12.30
2022-07-30T20:51:33.011Z,12.30
2022-07-30T20:53:59.633Z,12.30
2022-07-30T20:56:32.930Z,12.30
2022-07-30T20:59:05.972Z,12.30
2022-07-30T21:01:39.629Z,12.30
2022-07-30T21:04:25.555Z,12.30
2022-07-30T21:06:48.825Z,12.40
2022-07-30T21:09:25.025Z,12.50
2022-07-30T21:12:00.174Z,12.60
2022-07-30T21:14:33.220Z,12.60
2022-07-30T21:17:06.817Z,12.60
2022-07-30T21:19:39.799Z,12.60
2022-07-30T21:22:13.099Z,12.50
2022-07-30T21:24:46.258Z,12.50
2022-07-30T21:27:20.308Z,12.50
2022-07-30T21:29:53.846Z,12.60
2022-07-30T21:32:27.184Z,12.60
2022-07-30T21:35:00.492Z,12.60
2022-07-30T21:37:38.863Z,12.60
2022-07-30T21:40:13.812Z,12.50
2022-07-30T21:42:48.485Z,12.50
2022-07-30T21:45:21.838Z,12.50
2022-07-30T21:47:56.141Z,12.50
2022-07-30T21:50:57.655Z,12.50
2022-07-30T21:53:09.291Z,12.50
2022-07-30T21:55:52.905Z,12.50
2022-07-30T21:58:25.782Z,12.50
2022-07-30T22:00:58.307Z,12.60
2022-07-30T22:04:03.414Z,12.60
2022-07-30T22:06:17.105Z,12.60
2022-07-30T22:08:49.356Z,12.70
2022-07-30T22:11:22.130Z,12.80
2022-07-30T22:13:55.050Z,12.80
2022-07-30T22:16:30.060Z,12.90
2022-07-30T22:19:07.195Z,12.90
2022-07-30T22:21:40.580Z,12.90
2022-07-30T22:24:29.264Z,13.00
2022-07-30T22:26:57.455Z,12.90
2022-07-30T22:29:34.463Z,12.90
2022-07-30T22:32:13.517Z,12.80
2022-07-30T22:34:47.354Z,12.80
2022-07-30T22:37:21.792Z,12.80
2022-07-30T22:40:02.093Z,12.80
2022-07-30T22:42:46.812Z,12.90
2022-07-30T22:45:09.879Z,12.90
2022-07-30T22:47:51.550Z,13.00
2022-07-30T22:50:26.010Z,13.00
2022-07-30T22:53:56.659Z,13.10
2022-07-30T22:55:37.503Z,13.10
2022-07-30T22:58:10.350Z,13.10
2022-07-30T23:00:43.375Z,13.20
2022-07-30T23:03:17.035Z,13.20
2022-07-30T23:05:56.188Z,13.30
2022-07-30T23:08:30.312Z,13.30
2022-07-30T23:10:58.779Z,13.40
2022-07-30T23:13:31.606Z,13.40
2022-07-30T23:16:04.484Z,13.40
2022-07-30T23:18:44.110Z,13.40
2022-07-30T23:21:17.205Z,13.40
2022-07-30T23:23:50.096Z,13.30
2022-07-30T23:26:27.047Z,13.30
2022-07-30T23:29:00.745Z,13.20
2022-07-30T23:31:33.680Z,13.20
2022-07-30T23:34:07.697Z,13.20
2022-07-30T23:36:44.622Z,13.20
2022-07-30T23:39:17.537Z,13.20
2022-07-30T23:41:50.580Z,13.20
2022-07-30T23:44:23.434Z,13.20
2022-07-30T23:46:56.307Z,13.20
2022-07-30T23:49:31.584Z,13.20
2022-07-30T23:52:04.099Z,13.20
2022-07-30T23:54:36.913Z,13.10
2022-07-30T23:57:09.679Z,13.10
2022-07-30T23:59:42.533Z,13.10
